Time;durP1;ratioP1;P1;durP2;ratioP2;P2;SDS_P1;SDS_P2;PMS_P1;PMS_P2;Temp;Humidity;BMP_temperature;BMP_pressure;BME280_temperature;BME280_humidity;BME280_pressure;Samples;Min_cycle;Max_cycle;Signal;HPM_P1;HPM_P2
2021/09/22 00:00:29;;;;;;;6.90;5.07;;;;;;;;;;5077353;28;20121;-68
2021/09/22 00:02:55;;;;;;;17.45;5.28;;;;;;;;;;5009801;28;20476;-68
2021/09/22 00:05:21;;;;;;;9.38;5.72;;;;;;;;;;5077285;28;20053;-68
2021/09/22 00:07:47;;;;;;;7.38;4.50;;;;;;;;;;5009700;28;20382;-68
2021/09/22 00:10:14;;;;;;;9.20;6.22;;;;;;;;;;5011339;28;20100;-67
2021/09/22 00:12:41;;;;;;;6.90;4.10;;;;;;;;;;5012665;28;20032;-68
2021/09/22 00:15:08;;;;;;;8.57;4.85;;;;;;;;;;5021861;28;20022;-68
2021/09/22 00:17:34;;;;;;;7.78;5.93;;;;;;;;;;5032839;28;20495;-68
2021/09/22 00:20:00;;;;;;;11.50;5.05;;;;;;;;;;5032810;28;20021;-68
2021/09/22 00:22:26;;;;;;;7.55;4.30;;;;;;;;;;5032488;28;20056;-68
2021/09/22 00:24:52;;;;;;;12.45;5.43;;;;;;;;;;5032922;28;20077;-69
2021/09/22 00:27:18;;;;;;;8.73;6.50;;;;;;;;;;5032365;28;20109;-68
2021/09/22 00:29:44;;;;;;;20.40;4.30;;;;;;;;;;5031255;28;20365;-69
2021/09/22 00:32:10;;;;;;;15.00;4.60;;;;;;;;;;5133872;27;20466;-67
2021/09/22 00:34:36;;;;;;;23.35;3.75;;;;;;;;;;5136834;27;20454;-69
2021/09/22 00:37:06;;;;;;;11.80;6.05;;;;;;;;;;5136712;27;20034;-69
2021/09/22 00:39:34;;;;;;;10.88;6.35;;;;;;;;;;5118406;27;20023;-69
2021/09/22 00:42:02;;;;;;;8.13;5.40;;;;;;;;;;5118161;27;20023;-67
2021/09/22 00:44:28;;;;;;;9.93;5.05;;;;;;;;;;5136587;27;20026;-68
2021/09/22 00:46:54;;;;;;;8.77;6.90;;;;;;;;;;5117972;27;20500;-67
2021/09/22 00:49:20;;;;;;;14.23;4.63;;;;;;;;;;5099713;28;20026;-67
2021/09/22 00:51:47;;;;;;;10.27;3.65;;;;;;;;;;5100423;28;20070;-68
2021/09/22 00:54:13;;;;;;;11.93;4.93;;;;;;;;;;5031956;28;20097;-68
2021/09/22 00:56:39;;;;;;;9.68;3.95;;;;;;;;;;5031839;28;20024;-68
2021/09/22 00:59:05;;;;;;;10.95;5.03;;;;;;;;;;5031914;28;20026;-68
2021/09/22 01:01:32;;;;;;;12.32;4.65;;;;;;;;;;5100647;28;20021;-68
2021/09/22 01:04:03;;;;;;;11.48;5.03;;;;;;;;;;5100428;28;20033;-68
2021/09/22 01:06:30;;;;;;;10.05;3.67;;;;;;;;;;5099746;28;20037;-68
2021/09/22 01:08:57;;;;;;;6.13;3.83;;;;;;;;;;5031750;28;20026;-68
2021/09/22 01:11:27;;;;;;;23.83;4.80;;;;;;;;;;5100751;28;20533;-68
2021/09/22 01:13:53;;;;;;;17.77;4.40;;;;;;;;;;5100732;28;20029;-68
2021/09/22 01:16:19;;;;;;;7.07;4.15;;;;;;;;;;5031951;28;20045;-68
2021/09/22 01:18:44;;;;;;;5.78;3.97;;;;;;;;;;5032380;28;20550;-68
2021/09/22 01:21:10;;;;;;;10.00;3.40;;;;;;;;;;5113189;28;20039;-69
2021/09/22 01:23:37;;;;;;;5.60;3.97;;;;;;;;;;5110156;28;20790;-68
2021/09/22 01:26:03;;;;;;;9.32;4.65;;;;;;;;;;5094772;28;20040;-68
2021/09/22 01:28:29;;;;;;;10.40;4.85;;;;;;;;;;5095013;28;20035;-68
2021/09/22 01:30:58;;;;;;;11.45;5.18;;;;;;;;;;5094848;28;20056;-69
2021/09/22 01:33:24;;;;;;;8.52;3.55;;;;;;;;;;5094849;28;20031;-69
2021/09/22 01:35:51;;;;;;;9.23;4.95;;;;;;;;;;5093439;28;20028;-68
2021/09/22 01:38:22;;;;;;;5.68;3.67;;;;;;;;;;5098684;28;20501;-68
2021/09/22 01:40:58;;;;;;;8.55;4.40;;;;;;;;;;5115302;28;20031;-69
2021/09/22 01:43:25;;;;;;;6.20;3.40;;;;;;;;;;5113884;28;20027;-69
2021/09/22 01:45:51;;;;;;;12.45;3.65;;;;;;;;;;5113923;28;20059;-70
2021/09/22 01:48:17;;;;;;;3.30;3.00;;;;;;;;;;5114908;28;20024;-69
2021/09/22 01:50:43;;;;;;;24.40;5.05;;;;;;;;;;5115147;28;20084;-70
2021/09/22 01:53:09;;;;;;;7.85;4.05;;;;;;;;;;5114980;28;20536;-70
2021/09/22 01:55:35;;;;;;;11.95;4.43;;;;;;;;;;5115193;28;20032;-70
2021/09/22 01:58:02;;;;;;;6.43;4.45;;;;;;;;;;5113826;28;20082;-70
2021/09/22 02:00:28;;;;;;;6.18;4.60;;;;;;;;;;5113410;28;20035;-69
2021/09/22 02:02:53;;;;;;;9.15;7.35;;;;;;;;;;5114801;28;20034;-68
2021/09/22 02:05:19;;;;;;;6.72;4.15;;;;;;;;;;5113139;28;20034;-68
2021/09/22 02:07:45;;;;;;;8.52;4.55;;;;;;;;;;5114479;28;20099;-68
2021/09/22 02:10:11;;;;;;;6.40;4.40;;;;;;;;;;5114616;28;20424;-68
2021/09/22 02:12:38;;;;;;;11.35;7.40;;;;;;;;;;5114419;28;20019;-68
2021/09/22 02:15:04;;;;;;;15.60;10.27;;;;;;;;;;5114234;28;20055;-69
2021/09/22 02:17:31;;;;;;;7.72;4.55;;;;;;;;;;5112848;28;20466;-69
2021/09/22 02:19:57;;;;;;;18.15;3.83;;;;;;;;;;5112753;28;20439;-68
2021/09/22 02:22:23;;;;;;;12.55;4.05;;;;;;;;;;5045841;28;20513;-68
2021/09/22 02:24:49;;;;;;;8.02;6.78;;;;;;;;;;5098810;28;20021;-68
2021/09/22 02:27:18;;;;;;;11.35;6.45;;;;;;;;;;5031099;28;20145;-68
2021/09/22 02:29:44;;;;;;;10.38;4.38;;;;;;;;;;5029417;28;20095;-68
2021/09/22 02:32:10;;;;;;;7.47;4.70;;;;;;;;;;5130721;27;20061;-68
2021/09/22 02:34:37;;;;;;;7.82;5.05;;;;;;;;;;5134340;27;20051;-68
2021/09/22 02:37:04;;;;;;;8.82;4.72;;;;;;;;;;5134347;27;20106;-68
2021/09/22 02:39:30;;;;;;;6.20;4.45;;;;;;;;;;5134364;27;20027;-68
2021/09/22 02:41:56;;;;;;;7.93;5.60;;;;;;;;;;5134183;27;20428;-68
2021/09/22 02:44:22;;;;;;;7.32;4.80;;;;;;;;;;5122404;27;20028;-68
2021/09/22 02:46:48;;;;;;;6.47;4.88;;;;;;;;;;5010839;28;20065;-68
2021/09/22 02:49:14;;;;;;;11.15;7.72;;;;;;;;;;5010320;28;20026;-69
2021/09/22 02:51:40;;;;;;;12.48;4.85;;;;;;;;;;5010603;28;20074;-68
2021/09/22 02:54:06;;;;;;;12.48;4.30;;;;;;;;;;5010386;28;20029;-68
2021/09/22 02:56:32;;;;;;;12.85;4.95;;;;;;;;;;5078314;28;20094;-68
2021/09/22 02:58:58;;;;;;;11.57;4.85;;;;;;;;;;5077779;28;20033;-69
2021/09/22 03:01:24;;;;;;;8.00;4.88;;;;;;;;;;5010531;28;20370;-68
2021/09/22 03:03:50;;;;;;;9.13;5.60;;;;;;;;;;5077652;28;20037;-69
2021/09/22 03:06:16;;;;;;;7.35;5.53;;;;;;;;;;5010167;28;20033;-68
2021/09/22 03:08:42;;;;;;;10.05;5.82;;;;;;;;;;5010251;28;20457;-68
2021/09/22 03:11:11;;;;;;;9.50;5.07;;;;;;;;;;5010428;28;20469;-69
2021/09/22 03:13:38;;;;;;;13.57;5.47;;;;;;;;;;5010178;28;20018;-69
2021/09/22 03:16:04;;;;;;;19.50;10.40;;;;;;;;;;5010332;28;20109;-69
2021/09/22 03:18:31;;;;;;;13.60;5.15;;;;;;;;;;5026663;28;20029;-69
2021/09/22 03:20:57;;;;;;;11.35;5.38;;;;;;;;;;5029633;28;20037;-69
2021/09/22 03:23:23;;;;;;;10.52;6.63;;;;;;;;;;5098037;28;20040;-68
2021/09/22 03:25:49;;;;;;;12.73;5.88;;;;;;;;;;5029573;28;20045;-68
2021/09/22 03:28:15;;;;;;;13.63;6.00;;;;;;;;;;5029637;28;20033;-68
2021/09/22 03:30:41;;;;;;;17.88;5.38;;;;;;;;;;5066389;28;20030;-68
2021/09/22 03:33:07;;;;;;;14.75;6.43;;;;;;;;;;5130137;28;20102;-72
2021/09/22 03:35:33;;;;;;;11.32;5.57;;;;;;;;;;5009860;28;20052;-68
2021/09/22 03:37:59;;;;;;;10.65;5.88;;;;;;;;;;5010264;28;20062;-68
2021/09/22 03:40:25;;;;;;;9.05;5.97;;;;;;;;;;5101217;28;20521;-68
2021/09/22 03:42:51;;;;;;;11.48;8.00;;;;;;;;;;5115143;27;20038;-68
2021/09/22 03:45:17;;;;;;;17.75;7.75;;;;;;;;;;5137552;27;20493;-69
2021/09/22 03:47:43;;;;;;;14.00;5.60;;;;;;;;;;5137661;27;20110;-68
2021/09/22 03:50:10;;;;;;;15.02;6.10;;;;;;;;;;5097124;27;20104;-68
2021/09/22 03:52:36;;;;;;;14.00;6.00;;;;;;;;;;5013253;28;20101;-68
2021/09/22 03:55:03;;;;;;;11.80;5.85;;;;;;;;;;5013283;28;20366;-69
2021/09/22 03:57:29;;;;;;;20.17;6.63;;;;;;;;;;5013415;28;20045;-71
2021/09/22 03:59:55;;;;;;;11.00;6.13;;;;;;;;;;5013623;28;20026;-70
2021/09/22 04:02:21;;;;;;;12.10;6.63;;;;;;;;;;5081454;28;20116;-70
2021/09/22 04:04:47;;;;;;;13.50;6.25;;;;;;;;;;5013530;28;20022;-70
2021/09/22 04:07:13;;;;;;;8.05;5.75;;;;;;;;;;5082490;28;20026;-68
2021/09/22 04:09:39;;;;;;;11.05;6.07;;;;;;;;;;5012788;28;20785;-68
2021/09/22 04:12:05;;;;;;;8.65;6.18;;;;;;;;;;5013233;28;20030;-67
2021/09/22 04:14:31;;;;;;;11.93;6.50;;;;;;;;;;5017452;28;20041;-67
2021/09/22 04:16:57;;;;;;;8.07;6.32;;;;;;;;;;5032175;28;20022;-69
2021/09/22 04:19:23;;;;;;;10.45;6.28;;;;;;;;;;5032445;28;20027;-69
2021/09/22 04:21:49;;;;;;;9.25;6.25;;;;;;;;;;5032106;28;20109;-69
2021/09/22 04:24:15;;;;;;;11.10;6.10;;;;;;;;;;5100970;28;20033;-68
2021/09/22 04:26:42;;;;;;;11.45;5.70;;;;;;;;;;5100889;28;20085;-69
2021/09/22 04:29:08;;;;;;;9.50;5.78;;;;;;;;;;5032052;28;20473;-69
2021/09/22 04:31:34;;;;;;;7.75;6.10;;;;;;;;;;5031944;28;20040;-69
2021/09/22 04:34:00;;;;;;;8.93;6.22;;;;;;;;;;5032164;28;20034;-69
2021/09/22 04:36:26;;;;;;;13.50;6.30;;;;;;;;;;5032214;28;20029;-69
2021/09/22 04:38:52;;;;;;;11.10;6.25;;;;;;;;;;5031246;28;20021;-69
2021/09/22 04:41:18;;;;;;;14.70;6.45;;;;;;;;;;5098368;27;20027;-69
2021/09/22 04:43:44;;;;;;;15.55;6.20;;;;;;;;;;5136502;27;20097;-69
2021/09/22 04:46:10;;;;;;;9.20;5.72;;;;;;;;;;5136366;27;20184;-69
2021/09/22 04:48:39;;;;;;;16.13;6.15;;;;;;;;;;5136335;27;20107;-70
2021/09/22 04:51:06;;;;;;;11.77;6.38;;;;;;;;;;5117964;27;20019;-70
2021/09/22 04:53:32;;;;;;;17.98;6.65;;;;;;;;;;5136461;27;20015;-69
2021/09/22 04:55:58;;;;;;;15.82;6.70;;;;;;;;;;5053701;27;20117;-69
2021/09/22 04:58:24;;;;;;;14.30;6.47;;;;;;;;;;5031720;28;20162;-69
2021/09/22 05:00:50;;;;;;;15.43;6.68;;;;;;;;;;5100212;28;20120;-67
2021/09/22 05:03:16;;;;;;;16.38;6.78;;;;;;;;;;5031546;28;20029;-68
2021/09/22 05:05:42;;;;;;;12.30;6.53;;;;;;;;;;5031583;28;20049;-70
2021/09/22 05:08:09;;;;;;;20.40;6.78;;;;;;;;;;5100794;28;20022;-69
2021/09/22 05:10:35;;;;;;;13.02;6.35;;;;;;;;;;5032180;28;20021;-70
2021/09/22 05:13:01;;;;;;;14.02;7.50;;;;;;;;;;5031957;28;20044;-70
2021/09/22 05:15:27;;;;;;;9.18;7.20;;;;;;;;;;5100080;28;20030;-70
2021/09/22 05:17:54;;;;;;;13.73;6.30;;;;;;;;;;5099962;28;20026;-70
2021/09/22 05:20:21;;;;;;;12.25;6.28;;;;;;;;;;5099756;28;20049;-70
2021/09/22 05:22:47;;;;;;;13.35;7.13;;;;;;;;;;5031564;28;20058;-69
2021/09/22 05:25:13;;;;;;;14.15;6.35;;;;;;;;;;5031333;28;20029;-69
2021/09/22 05:27:39;;;;;;;10.60;6.35;;;;;;;;;;5019117;28;20109;-69
2021/09/22 05:30:06;;;;;;;8.15;6.05;;;;;;;;;;5024874;27;20022;-69
2021/09/22 05:32:32;;;;;;;9.95;6.93;;;;;;;;;;5135386;27;20027;-69
2021/09/22 05:34:58;;;;;;;14.55;6.47;;;;;;;;;;5116851;27;20031;-69
2021/09/22 05:37:24;;;;;;;13.93;7.13;;;;;;;;;;5135417;27;20027;-68
2021/09/22 05:39:50;;;;;;;9.45;5.72;;;;;;;;;;5135204;27;20106;-67
2021/09/22 05:42:16;;;;;;;25.42;11.02;;;;;;;;;;5117079;27;20059;-68
2021/09/22 05:44:42;;;;;;;23.90;10.73;;;;;;;;;;5135353;27;20061;-68
2021/09/22 05:47:08;;;;;;;18.52;8.77;;;;;;;;;;5135371;27;20083;-68
2021/09/22 05:49:34;;;;;;;22.95;7.25;;;;;;;;;;5135332;27;20068;-68
2021/09/22 05:52:00;;;;;;;19.85;7.63;;;;;;;;;;5135447;27;20062;-68
2021/09/22 05:54:26;;;;;;;23.33;8.27;;;;;;;;;;5116570;27;20096;-68
2021/09/22 05:56:52;;;;;;;21.05;7.68;;;;;;;;;;5047467;27;20105;-68
2021/09/22 05:59:18;;;;;;;24.38;8.57;;;;;;;;;;5105753;27;20033;-68
2021/09/22 06:01:44;;;;;;;21.33;8.73;;;;;;;;;;5135265;27;20038;-68
2021/09/22 06:04:10;;;;;;;12.88;8.20;;;;;;;;;;5117192;27;20030;-67
2021/09/22 06:06:36;;;;;;;20.15;8.73;;;;;;;;;;5076968;27;20531;-68
2021/09/22 06:09:02;;;;;;;22.33;14.90;;;;;;;;;;5030802;28;20034;-68
2021/09/22 06:11:28;;;;;;;25.20;11.80;;;;;;;;;;5024829;28;20473;-69
2021/09/22 06:13:54;;;;;;;27.70;14.50;;;;;;;;;;5011038;28;20086;-69
2021/09/22 06:16:21;;;;;;;18.50;11.77;;;;;;;;;;5098258;28;20132;-66
2021/09/22 06:18:47;;;;;;;17.17;11.73;;;;;;;;;;5030460;28;20094;-66
2021/09/22 06:21:13;;;;;;;22.88;10.80;;;;;;;;;;5030432;28;20086;-68
2021/09/22 06:23:39;;;;;;;21.92;11.88;;;;;;;;;;5098632;28;20108;-65
2021/09/22 06:26:05;;;;;;;18.75;11.32;;;;;;;;;;5030325;28;20544;-65
2021/09/22 06:28:31;;;;;;;49.08;12.00;;;;;;;;;;5030849;28;20030;-64
2021/09/22 06:30:57;;;;;;;53.88;11.15;;;;;;;;;;5030298;28;20109;-65
2021/09/22 06:33:23;;;;;;;39.63;10.15;;;;;;;;;;5072901;27;20051;-65
2021/09/22 06:35:49;;;;;;;19.50;10.75;;;;;;;;;;5134483;27;20067;-63
2021/09/22 06:38:15;;;;;;;17.70;8.80;;;;;;;;;;5134563;27;20427;-68
2021/09/22 06:40:41;;;;;;;17.25;7.75;;;;;;;;;;5134441;27;20026;-64
2021/09/22 06:43:07;;;;;;;19.90;8.32;;;;;;;;;;5109584;27;20021;-65
2021/09/22 06:45:33;;;;;;;26.13;7.95;;;;;;;;;;5030102;28;20082;-65
2021/09/22 06:47:59;;;;;;;16.40;7.75;;;;;;;;;;5030399;28;20073;-64
2021/09/22 06:50:26;;;;;;;16.58;8.27;;;;;;;;;;5039306;27;20033;-64
2021/09/22 06:52:52;;;;;;;18.42;8.13;;;;;;;;;;5133812;27;20110;-63
2021/09/22 06:55:18;;;;;;;15.05;8.02;;;;;;;;;;5134501;27;20047;-66
2021/09/22 06:57:45;;;;;;;27.55;8.25;;;;;;;;;;5134077;27;20122;-65
2021/09/22 07:00:13;;;;;;;18.50;7.60;;;;;;;;;;5067596;27;20029;-67
2021/09/22 07:02:39;;;;;;;17.15;7.72;;;;;;;;;;5089188;28;20469;-67
2021/09/22 07:05:06;;;;;;;18.40;7.85;;;;;;;;;;5078217;28;20026;-66
2021/09/22 07:07:32;;;;;;;16.23;7.53;;;;;;;;;;5021118;28;20468;-67
2021/09/22 07:09:58;;;;;;;13.40;8.25;;;;;;;;;;5030212;28;20029;-67
2021/09/22 07:12:24;;;;;;;14.10;8.00;;;;;;;;;;5028567;28;20379;-67
2021/09/22 07:14:50;;;;;;;15.93;8.30;;;;;;;;;;5017391;28;20022;-67
2021/09/22 07:17:18;;;;;;;12.43;7.88;;;;;;;;;;5030010;28;20029;-67
2021/09/22 07:19:44;;;;;;;17.83;8.18;;;;;;;;;;5029514;28;20214;-67
2021/09/22 07:22:10;;;;;;;13.50;9.15;;;;;;;;;;5015372;28;20053;-67
2021/09/22 07:24:36;;;;;;;14.73;9.63;;;;;;;;;;5010319;28;20026;-67
2021/09/22 07:27:02;;;;;;;12.63;8.60;;;;;;;;;;5020338;28;20037;-67
2021/09/22 07:29:28;;;;;;;12.82;9.30;;;;;;;;;;5029880;28;20049;-67
2021/09/22 07:31:55;;;;;;;13.65;9.75;;;;;;;;;;5012675;28;20065;-67
2021/09/22 07:34:21;;;;;;;15.18;10.20;;;;;;;;;;5010189;28;20030;-67
2021/09/22 07:36:49;;;;;;;15.55;10.00;;;;;;;;;;5010091;28;20083;-67
2021/09/22 07:39:15;;;;;;;12.77;9.43;;;;;;;;;;5010176;28;20490;-67
2021/09/22 07:41:41;;;;;;;14.52;9.57;;;;;;;;;;5115013;28;20023;-67
2021/09/22 07:44:08;;;;;;;15.07;10.95;;;;;;;;;;5133718;28;20103;-68
2021/09/22 07:46:34;;;;;;;19.40;10.18;;;;;;;;;;5133676;28;20027;-65
2021/09/22 07:49:00;;;;;;;20.63;11.38;;;;;;;;;;5133472;28;20023;-65
2021/09/22 07:51:26;;;;;;;16.55;11.40;;;;;;;;;;5133620;28;20031;-65
2021/09/22 07:53:52;;;;;;;18.23;11.77;;;;;;;;;;5133376;28;20462;-66
2021/09/22 07:56:18;;;;;;;18.13;12.60;;;;;;;;;;5133458;28;20096;-65
2021/09/22 07:58:44;;;;;;;19.35;11.95;;;;;;;;;;5133371;28;20679;-65
2021/09/22 08:01:12;;;;;;;17.45;12.20;;;;;;;;;;5133455;28;20301;-65
2021/09/22 08:03:38;;;;;;;16.98;11.68;;;;;;;;;;5115139;28;20020;-65
2021/09/22 08:06:04;;;;;;;17.35;11.27;;;;;;;;;;5133028;28;20032;-65
2021/09/22 08:08:31;;;;;;;19.42;11.77;;;;;;;;;;5133427;28;20038;-65
2021/09/22 08:10:57;;;;;;;16.77;11.70;;;;;;;;;;5133325;28;20023;-64
2021/09/22 08:13:23;;;;;;;18.10;11.23;;;;;;;;;;5114857;28;20378;-65
2021/09/22 08:15:49;;;;;;;16.25;10.18;;;;;;;;;;5054070;28;20033;-67
2021/09/22 08:18:15;;;;;;;20.08;11.52;;;;;;;;;;5097869;28;20032;-66
2021/09/22 08:20:41;;;;;;;20.23;12.88;;;;;;;;;;5028886;28;20064;-65
2021/09/22 08:23:07;;;;;;;21.63;11.90;;;;;;;;;;5029308;28;20036;-67
2021/09/22 08:25:34;;;;;;;18.75;12.05;;;;;;;;;;5029207;28;20026;-67
2021/09/22 08:28:00;;;;;;;19.85;11.75;;;;;;;;;;5029254;28;20495;-66
2021/09/22 08:30:26;;;;;;;20.73;11.80;;;;;;;;;;5055837;27;20038;-67
2021/09/22 08:32:52;;;;;;;16.92;11.00;;;;;;;;;;5136940;27;20028;-66
2021/09/22 08:35:18;;;;;;;14.85;10.75;;;;;;;;;;5118486;27;20079;-67
2021/09/22 08:37:44;;;;;;;15.38;11.35;;;;;;;;;;5137169;27;20102;-68
2021/09/22 08:40:11;;;;;;;19.17;11.60;;;;;;;;;;5137118;27;20035;-70
2021/09/22 08:42:37;;;;;;;18.92;11.25;;;;;;;;;;5137236;27;20038;-69
2021/09/22 08:45:03;;;;;;;22.10;12.15;;;;;;;;;;5137384;27;20110;-69
2021/09/22 08:47:29;;;;;;;21.05;11.38;;;;;;;;;;5137320;27;20031;-69
2021/09/22 08:49:55;;;;;;;19.30;11.40;;;;;;;;;;5137177;27;20030;-70
2021/09/22 08:52:21;;;;;;;20.35;11.27;;;;;;;;;;5137023;27;20508;-69
2021/09/22 08:54:47;;;;;;;15.00;10.30;;;;;;;;;;5137352;27;20019;-70
2021/09/22 08:57:13;;;;;;;18.35;10.50;;;;;;;;;;5137035;27;20083;-70
2021/09/22 08:59:39;;;;;;;21.13;11.02;;;;;;;;;;5136952;27;20043;-68
2021/09/22 09:02:10;;;;;;;24.50;11.85;;;;;;;;;;5137040;27;20497;-69
2021/09/22 09:04:36;;;;;;;21.48;11.70;;;;;;;;;;5136569;27;20419;-68
2021/09/22 09:07:03;;;;;;;23.75;11.93;;;;;;;;;;5136393;27;20079;-68
2021/09/22 09:09:36;;;;;;;33.40;11.75;;;;;;;;;;5136631;27;20029;-68
2021/09/22 09:12:03;;;;;;;25.65;11.43;;;;;;;;;;5136475;27;20023;-68
2021/09/22 09:14:33;;;;;;;28.27;11.38;;;;;;;;;;5057733;27;20056;-67
2021/09/22 09:17:01;;;;;;;26.50;11.38;;;;;;;;;;5012416;28;20026;-68
2021/09/22 09:19:27;;;;;;;25.33;11.07;;;;;;;;;;5012301;28;20437;-68
2021/09/22 09:21:56;;;;;;;32.42;11.13;;;;;;;;;;5011863;28;20489;-69
2021/09/22 09:24:49;;;;;;;20.20;10.90;;;;;;;;;;5012116;28;20045;-68
2021/09/22 09:27:15;;;;;;;33.77;10.77;;;;;;;;;;5014500;28;20046;-68
2021/09/22 09:29:42;;;;;;;24.85;10.48;;;;;;;;;;5079859;28;20279;-68
2021/09/22 09:32:21;;;;;;;27.45;11.65;;;;;;;;;;5129946;27;20024;-68
2021/09/22 09:35:20;;;;;;;25.80;11.60;;;;;;;;;;5117510;27;20030;-68
2021/09/22 09:37:56;;;;;;;20.00;10.80;;;;;;;;;;5073328;27;20379;-68
2021/09/22 09:40:28;;;;;;;23.75;10.90;;;;;;;;;;5135943;27;20084;-68
2021/09/22 09:43:00;;;;;;;19.00;10.93;;;;;;;;;;5135354;27;20068;-68
2021/09/22 09:45:31;;;;;;;26.37;11.07;;;;;;;;;;5135806;27;20019;-68
2021/09/22 09:48:00;;;;;;;19.33;11.15;;;;;;;;;;5135718;27;20027;-68
2021/09/22 09:50:26;;;;;;;25.23;10.63;;;;;;;;;;5135801;27;20099;-68
2021/09/22 09:52:55;;;;;;;17.73;10.57;;;;;;;;;;5116877;27;20076;-68
2021/09/22 09:55:23;;;;;;;17.63;10.55;;;;;;;;;;5135597;27;20411;-67
2021/09/22 09:57:50;;;;;;;17.75;10.18;;;;;;;;;;5135416;27;20531;-68
2021/09/22 10:00:22;;;;;;;16.92;9.90;;;;;;;;;;5135416;27;20450;-68
2021/09/22 10:02:48;;;;;;;15.15;10.50;;;;;;;;;;5117147;27;20026;-68
2021/09/22 10:05:14;;;;;;;15.63;9.32;;;;;;;;;;5117111;27;20023;-67
2021/09/22 10:07:40;;;;;;;15.00;10.05;;;;;;;;;;5135391;27;20035;-68
2021/09/22 10:10:07;;;;;;;15.70;9.77;;;;;;;;;;5116746;27;20021;-68
2021/09/22 10:12:33;;;;;;;17.67;9.52;;;;;;;;;;5114261;27;20037;-68
2021/09/22 10:15:00;;;;;;;15.68;9.02;;;;;;;;;;5031011;28;20372;-68
2021/09/22 10:17:30;;;;;;;18.13;9.65;;;;;;;;;;5031007;28;20441;-68
2021/09/22 10:19:58;;;;;;;20.20;9.60;;;;;;;;;;5031039;28;20025;-68
2021/09/22 10:22:24;;;;;;;11.27;8.55;;;;;;;;;;5030951;28;20077;-68
2021/09/22 10:24:50;;;;;;;14.43;8.50;;;;;;;;;;5030799;28;20056;-68
2021/09/22 10:27:16;;;;;;;14.23;9.00;;;;;;;;;;5030663;28;20048;-68
2021/09/22 10:29:57;;;;;;;12.45;8.68;;;;;;;;;;5030702;28;20066;-68
2021/09/22 10:32:41;;;;;;;12.38;8.25;;;;;;;;;;5022817;28;20025;-68
2021/09/22 10:35:25;;;;;;;11.85;8.25;;;;;;;;;;5023521;28;20021;-68
2021/09/22 10:37:52;;;;;;;12.82;8.13;;;;;;;;;;5098601;28;20028;-68
2021/09/22 10:40:19;;;;;;;11.55;8.02;;;;;;;;;;5030286;28;20022;-68
2021/09/22 10:42:45;;;;;;;12.82;7.80;;;;;;;;;;5016642;28;20100;-68
2021/09/22 10:45:12;;;;;;;11.65;7.95;;;;;;;;;;5088150;28;20857;-68
2021/09/22 10:47:39;;;;;;;11.55;7.68;;;;;;;;;;5085782;28;20030;-70
2021/09/22 10:50:05;;;;;;;12.52;7.78;;;;;;;;;;5024316;28;20017;-68
2021/09/22 10:52:37;;;;;;;12.35;8.15;;;;;;;;;;5046628;27;20481;-68
2021/09/22 10:55:07;;;;;;;10.85;7.47;;;;;;;;;;5013559;28;20067;-69
2021/09/22 10:57:33;;;;;;;12.27;7.45;;;;;;;;;;5010861;28;20038;-68
2021/09/22 11:00:16;;;;;;;9.00;6.63;;;;;;;;;;5017567;28;20057;-68
2021/09/22 11:02:49;;;;;;;12.48;7.60;;;;;;;;;;5020436;28;20461;-68
2021/09/22 11:05:33;;;;;;;12.50;7.10;;;;;;;;;;5027756;28;20017;-68
2021/09/22 11:08:08;;;;;;;9.48;6.57;;;;;;;;;;5010653;28;20030;-68
2021/09/22 11:10:34;;;;;;;8.57;6.47;;;;;;;;;;5046315;28;20023;-68
2021/09/22 11:13:19;;;;;;;9.15;6.60;;;;;;;;;;5113402;28;20210;-68
2021/09/22 11:15:51;;;;;;;10.27;5.88;;;;;;;;;;5052340;28;20026;-68
2021/09/22 11:18:18;;;;;;;10.00;6.40;;;;;;;;;;5030075;28;20018;-68
2021/09/22 11:20:53;;;;;;;9.05;5.82;;;;;;;;;;5030076;28;20038;-67
2021/09/22 11:23:21;;;;;;;8.65;6.28;;;;;;;;;;5098328;28;20026;-68
2021/09/22 11:25:47;;;;;;;7.57;5.68;;;;;;;;;;5030045;28;20044;-68
2021/09/22 11:28:13;;;;;;;11.30;5.68;;;;;;;;;;5029498;28;20045;-68
2021/09/22 11:30:40;;;;;;;7.80;5.28;;;;;;;;;;5030089;28;20037;-68
2021/09/22 11:33:06;;;;;;;8.15;5.65;;;;;;;;;;5029935;28;20073;-67
2021/09/22 11:35:32;;;;;;;8.27;5.25;;;;;;;;;;5030087;28;20081;-69
2021/09/22 11:37:59;;;;;;;7.50;5.53;;;;;;;;;;5029925;28;20025;-68
2021/09/22 11:40:31;;;;;;;8.38;4.97;;;;;;;;;;5063964;28;20532;-68
2021/09/22 11:42:58;;;;;;;8.48;5.13;;;;;;;;;;5115313;28;20020;-68
2021/09/22 11:45:34;;;;;;;6.82;4.80;;;;;;;;;;5133760;28;20020;-68
2021/09/22 11:48:00;;;;;;;6.47;4.75;;;;;;;;;;5115367;28;20071;-68
2021/09/22 11:50:31;;;;;;;7.70;4.60;;;;;;;;;;5133720;28;20023;-68
2021/09/22 11:52:57;;;;;;;6.95;4.60;;;;;;;;;;5133832;28;20020;-68
2021/09/22 11:55:23;;;;;;;5.90;4.57;;;;;;;;;;5133783;28;20020;-68
2021/09/22 11:57:49;;;;;;;6.40;4.88;;;;;;;;;;5133641;28;20030;-68
2021/09/22 12:00:17;;;;;;;5.93;4.57;;;;;;;;;;5118136;28;20029;-68
2021/09/22 12:02:43;;;;;;;4.78;4.28;;;;;;;;;;5098130;28;20467;-68
2021/09/22 12:05:13;;;;;;;8.02;4.55;;;;;;;;;;5099703;28;20029;-68
2021/09/22 12:07:39;;;;;;;5.40;4.28;;;;;;;;;;5033430;28;20049;-68
2021/09/22 12:10:05;;;;;;;5.60;4.40;;;;;;;;;;5033035;28;20025;-68
2021/09/22 12:12:32;;;;;;;6.32;4.50;;;;;;;;;;5101910;28;20090;-67
2021/09/22 12:14:58;;;;;;;5.93;4.07;;;;;;;;;;5032822;28;20037;-67
2021/09/22 12:17:29;;;;;;;6.68;4.03;;;;;;;;;;5101774;28;20435;-68
2021/09/22 12:19:55;;;;;;;6.20;4.47;;;;;;;;;;5033009;28;20495;-68
2021/09/22 12:22:23;;;;;;;6.95;4.07;;;;;;;;;;5115441;28;20093;-68
2021/09/22 12:24:49;;;;;;;5.25;3.92;;;;;;;;;;5115526;28;20394;-68
2021/09/22 12:27:17;;;;;;;6.28;4.20;;;;;;;;;;5116701;28;20443;-68
2021/09/22 12:29:52;;;;;;;5.80;4.22;;;;;;;;;;5115110;28;20053;-68
2021/09/22 12:32:18;;;;;;;5.55;4.25;;;;;;;;;;5096575;28;20107;-68
2021/09/22 12:34:44;;;;;;;5.88;4.03;;;;;;;;;;5096483;28;20035;-67
2021/09/22 12:37:18;;;;;;;6.70;3.90;;;;;;;;;;5110403;28;20027;-68
2021/09/22 12:39:54;;;;;;;7.00;3.80;;;;;;;;;;5116475;28;20034;-68
2021/09/22 12:42:20;;;;;;;5.25;3.40;;;;;;;;;;5116767;28;20034;-68
2021/09/22 12:44:52;;;;;;;5.30;3.70;;;;;;;;;;5116149;28;20031;-68
2021/09/22 12:47:18;;;;;;;5.00;3.58;;;;;;;;;;5116656;28;20038;-68
2021/09/22 12:50:03;;;;;;;4.85;3.63;;;;;;;;;;5116509;28;20023;-68
2021/09/22 12:52:29;;;;;;;3.70;3.15;;;;;;;;;;5116310;28;20046;-67
2021/09/22 12:54:55;;;;;;;6.90;3.50;;;;;;;;;;5115076;28;20097;-68
2021/09/22 12:57:21;;;;;;;4.00;3.30;;;;;;;;;;5116077;28;20434;-67
2021/09/22 12:59:47;;;;;;;4.30;3.60;;;;;;;;;;5116095;28;20023;-68
2021/09/22 13:02:20;;;;;;;5.18;3.42;;;;;;;;;;5116136;28;20565;-68
2021/09/22 13:04:48;;;;;;;4.63;3.33;;;;;;;;;;5116075;28;20027;-68
2021/09/22 13:07:21;;;;;;;5.13;3.25;;;;;;;;;;5116164;28;20508;-67
2021/09/22 13:09:47;;;;;;;4.00;3.30;;;;;;;;;;5116040;28;20016;-68
2021/09/22 13:12:27;;;;;;;3.75;3.17;;;;;;;;;;5115926;28;20019;-68
2021/09/22 13:14:53;;;;;;;3.67;3.08;;;;;;;;;;5113536;27;20016;-68
2021/09/22 13:17:19;;;;;;;4.40;3.08;;;;;;;;;;5115130;28;20031;-68
2021/09/22 13:19:47;;;;;;;5.82;3.05;;;;;;;;;;5115825;28;20403;-68
2021/09/22 13:22:12;;;;;;;6.20;3.33;;;;;;;;;;5068535;27;20049;-68
2021/09/22 13:24:39;;;;;;;4.00;3.15;;;;;;;;;;5031801;28;20026;-68
2021/09/22 13:27:05;;;;;;;6.32;3.00;;;;;;;;;;5100422;28;20038;-68
2021/09/22 13:29:31;;;;;;;4.30;3.25;;;;;;;;;;5031831;28;20038;-67
2021/09/22 13:31:59;;;;;;;5.35;3.58;;;;;;;;;;5100542;28;20029;-68
2021/09/22 13:34:29;;;;;;;4.43;3.45;;;;;;;;;;5031812;28;20017;-66
2021/09/22 13:36:56;;;;;;;4.00;3.40;;;;;;;;;;5032017;28;20476;-68
2021/09/22 13:39:23;;;;;;;5.00;3.47;;;;;;;;;;5031901;28;20098;-67
2021/09/22 13:41:49;;;;;;;4.22;3.20;;;;;;;;;;5100057;28;20520;-66
2021/09/22 13:44:15;;;;;;;6.40;3.55;;;;;;;;;;5031614;28;20034;-69
2021/09/22 13:46:49;;;;;;;6.20;3.20;;;;;;;;;;5031494;28;20261;-68
2021/09/22 13:49:15;;;;;;;4.25;3.30;;;;;;;;;;5031748;28;20686;-68
2021/09/22 13:51:43;;;;;;;4.20;3.25;;;;;;;;;;5095286;27;20526;-68
2021/09/22 13:54:09;;;;;;;4.10;2.75;;;;;;;;;;5135532;27;20027;-69
2021/09/22 13:56:35;;;;;;;4.07;3.40;;;;;;;;;;5135989;27;20059;-69
2021/09/22 13:59:01;;;;;;;6.10;3.50;;;;;;;;;;5135714;27;20050;-69
2021/09/22 14:01:27;;;;;;;4.65;2.83;;;;;;;;;;5117018;27;20504;-69
2021/09/22 14:03:53;;;;;;;4.00;3.58;;;;;;;;;;5084259;28;20034;-66
2021/09/22 14:06:19;;;;;;;4.65;3.13;;;;;;;;;;5011602;28;20061;-67
2021/09/22 14:08:45;;;;;;;3.95;3.05;;;;;;;;;;5011412;28;20411;-67
2021/09/22 14:11:11;;;;;;;4.53;3.00;;;;;;;;;;5011389;28;20034;-67
2021/09/22 14:13:38;;;;;;;3.13;2.72;;;;;;;;;;5011794;28;20079;-66
2021/09/22 14:16:05;;;;;;;3.90;3.20;;;;;;;;;;5011545;28;20022;-66
2021/09/22 14:18:31;;;;;;;4.30;2.88;;;;;;;;;;5079134;28;20121;-68
2021/09/22 14:20:57;;;;;;;4.55;3.38;;;;;;;;;;5078808;28;20125;-67
2021/09/22 14:23:24;;;;;;;4.95;3.53;;;;;;;;;;5011496;28;20112;-67
2021/09/22 14:25:51;;;;;;;4.22;3.10;;;;;;;;;;5016220;28;20042;-68
2021/09/22 14:28:17;;;;;;;3.78;3.15;;;;;;;;;;5029940;28;20128;-67
2021/09/22 14:30:45;;;;;;;4.55;3.42;;;;;;;;;;5063856;27;20038;-67
2021/09/22 14:33:11;;;;;;;3.33;2.97;;;;;;;;;;5116553;27;20049;-67